Time;durP1;ratioP1;P1;durP2;ratioP2;P2;SDS_P1;SDS_P2;PMS_P1;PMS_P2;Temp;Humidity;BMP_temperature;BMP_pressure;BME280_temperature;BME280_humidity;BME280_pressure;Samples;Min_cycle;Max_cycle;Signal;HPM_P1;HPM_P2
2022/05/17 00:03:31;;;;;;;4.63;4.13;;;15.60;99.90;;;;;;4937677;29;20542;-88
2022/05/17 00:06:28;;;;;;;5.23;4.50;;;15.50;99.90;;;;;;4999377;28;20487;-87
2022/05/17 00:12:39;;;;;;;3.60;3.30;;;15.40;99.90;;;;;;4925904;28;20743;-87
2022/05/17 00:15:37;;;;;;;4.83;4.10;;;15.40;99.90;;;;;;4996475;28;20527;-87
2022/05/17 00:18:18;;;;;;;4.83;4.33;;;15.40;99.90;;;;;;4996525;28;20489;-87
2022/05/17 00:21:23;;;;;;;4.33;3.90;;;15.30;99.90;;;;;;4996850;28;20465;-87
2022/05/17 00:26:59;;;;;;;6.17;3.90;;;15.30;99.90;;;;;;4994973;28;20968;-87
2022/05/17 00:30:18;;;;;;;4.90;4.50;;;15.20;99.90;;;;;;4999741;28;20483;-88
2022/05/17 00:33:29;;;;;;;4.83;4.33;;;15.20;99.90;;;;;;4977518;28;20455;-87
2022/05/17 00:36:18;;;;;;;5.00;4.60;;;15.10;99.90;;;;;;4999221;28;20841;-87
2022/05/17 00:39:00;;;;;;;7.40;4.40;;;15.10;99.90;;;;;;4999579;28;21003;-87
2022/05/17 00:42:09;;;;;;;4.97;4.43;;;15.10;99.90;;;;;;4999034;28;20508;-87
2022/05/17 00:45:09;;;;;;;4.70;4.30;;;15.00;99.90;;;;;;4999044;28;20999;-87
2022/05/17 00:47:45;;;;;;;4.63;4.23;;;14.90;99.90;;;;;;4996758;28;20453;-87
2022/05/17 00:50:50;;;;;;;5.17;4.70;;;14.80;99.90;;;;;;4998572;28;20459;-87
2022/05/17 00:53:35;;;;;;;5.87;5.37;;;14.80;99.90;;;;;;4998845;28;20474;-87
2022/05/17 01:02:19;;;;;;;4.63;4.17;;;14.70;99.90;;;;;;4998365;28;20464;-87
2022/05/17 01:05:11;;;;;;;4.43;4.03;;;14.70;99.90;;;;;;4997110;28;20873;-87
2022/05/17 01:08:21;;;;;;;3.87;3.57;;;14.80;99.90;;;;;;4996272;28;20556;-87
2022/05/17 01:10:56;;;;;;;4.33;3.93;;;14.80;99.90;;;;;;4995573;28;20486;-87
2022/05/17 01:16:26;;;;;;;5.53;4.87;;;14.80;99.90;;;;;;4998936;28;20487;-88
2022/05/17 01:22:08;;;;;;;4.40;4.03;;;14.80;99.90;;;;;;4989462;28;20515;-87
2022/05/17 01:25:06;;;;;;;5.43;4.73;;;14.80;99.90;;;;;;4997689;28;20495;-87
2022/05/17 01:28:00;;;;;;;4.87;3.80;;;14.70;99.90;;;;;;4997073;28;20502;-87
2022/05/17 01:33:58;;;;;;;4.13;3.83;;;14.70;99.90;;;;;;4972926;28;20442;-87
2022/05/17 01:36:30;;;;;;;4.30;4.00;;;14.60;99.90;;;;;;4998099;28;20460;-88
2022/05/17 01:39:12;;;;;;;5.10;4.70;;;14.70;99.90;;;;;;4997487;28;20989;-88
2022/05/17 01:41:47;;;;;;;6.53;4.43;;;14.60;99.90;;;;;;4997132;28;20488;-87
2022/05/17 01:44:37;;;;;;;5.73;5.23;;;14.60;99.90;;;;;;4997723;28;20515;-87
2022/05/17 01:47:27;;;;;;;4.57;3.83;;;14.60;99.90;;;;;;4997036;28;20449;-87
2022/05/17 01:50:17;;;;;;;7.50;4.30;;;14.60;99.90;;;;;;5007592;28;20879;-87
2022/05/17 01:53:01;;;;;;;7.53;3.97;;;14.60;99.90;;;;;;4996119;28;20530;-87
2022/05/17 01:55:45;;;;;;;;;;;;;;;;;;;;;
2022/05/17 01:58:24;;;;;;;5.10;4.70;;;14.60;99.90;;;;;;4997958;28;20499;-87
2022/05/17 02:01:15;;;;;;;4.83;4.53;;;14.60;99.90;;;;;;4997378;28;20475;-87
2022/05/17 02:03:51;;;;;;;4.40;3.83;;;14.60;99.90;;;;;;4997392;28;20506;-87
2022/05/17 02:06:34;;;;;;;4.13;3.93;;;14.60;99.90;;;;;;4998441;28;20467;-87
2022/05/17 02:09:14;;;;;;;5.50;4.60;;;14.50;99.90;;;;;;4999874;28;20466;-87
2022/05/17 02:12:02;;;;;;;4.50;4.10;;;14.50;99.90;;;;;;4999288;28;20462;-87
2022/05/17 02:14:38;;;;;;;4.90;4.50;;;14.50;99.90;;;;;;4998854;28;20562;-86
2022/05/17 02:17:35;;;;;;;5.90;4.80;;;14.50;99.90;;;;;;4997120;28;20992;-87
2022/05/17 02:20:19;;;;;;;4.40;4.17;;;14.50;99.90;;;;;;4997202;28;20451;-88
2022/05/17 02:23:13;;;;;;;4.90;4.50;;;14.50;99.90;;;;;;4996864;28;20456;-87
2022/05/17 02:25:54;;;;;;;9.67;5.63;;;14.50;99.90;;;;;;4996340;28;20476;-87
2022/05/17 02:28:48;;;;;;;6.60;4.70;;;14.40;99.90;;;;;;4996845;28;20800;-87
2022/05/17 02:31:27;;;;;;;6.17;5.57;;;14.40;99.90;;;;;;4996298;28;20489;-87
2022/05/17 02:34:17;;;;;;;7.40;5.53;;;14.40;99.90;;;;;;4996249;28;20474;-88
2022/05/17 02:36:55;;;;;;;5.03;4.67;;;14.40;99.90;;;;;;4996888;28;20527;-88
2022/05/17 02:39:34;;;;;;;5.40;4.90;;;14.30;99.90;;;;;;5005731;28;20451;-87
2022/05/17 02:42:14;;;;;;;6.17;5.63;;;14.30;99.90;;;;;;4993263;28;20455;-87
2022/05/17 02:48:04;;;;;;;5.70;5.07;;;14.20;99.90;;;;;;4993403;28;20447;-87
2022/05/17 02:56:29;;;;;;;5.50;4.90;;;14.20;99.90;;;;;;4991888;28;20482;-87
2022/05/17 02:59:12;;;;;;;5.90;5.40;;;14.20;99.90;;;;;;4994886;28;20511;-87
2022/05/17 03:07:54;;;;;;;5.10;4.67;;;14.10;99.90;;;;;;4995022;28;20435;-86
2022/05/17 03:10:29;;;;;;;6.07;5.33;;;14.00;99.90;;;;;;4998056;28;20450;-85
2022/05/17 03:13:07;;;;;;;5.90;4.77;;;14.10;99.90;;;;;;4998486;28;20516;-86
2022/05/17 03:15:53;;;;;;;6.60;5.90;;;14.10;99.90;;;;;;4997804;28;20470;-86
2022/05/17 03:18:40;;;;;;;4.80;4.40;;;14.00;99.90;;;;;;4998184;28;20486;-86
2022/05/17 03:21:18;;;;;;;5.53;5.13;;;14.00;99.90;;;;;;4997829;28;20840;-86
2022/05/17 03:23:53;;;;;;;5.33;4.83;;;14.00;99.90;;;;;;4998354;28;20465;-85
2022/05/17 03:26:35;;;;;;;5.43;4.77;;;14.00;99.90;;;;;;5001627;28;20443;-85
2022/05/17 03:29:08;;;;;;;5.60;5.20;;;14.00;99.90;;;;;;5005296;28;20480;-85
2022/05/17 03:31:48;;;;;;;5.30;4.80;;;13.90;99.90;;;;;;4994134;28;20879;-85
2022/05/17 03:34:25;;;;;;;5.57;4.77;;;14.00;99.90;;;;;;4994231;28;20459;-85
2022/05/17 03:37:04;;;;;;;5.40;4.90;;;13.90;99.90;;;;;;4994901;28;20575;-85
2022/05/17 03:39:41;;;;;;;7.27;5.70;;;13.90;99.90;;;;;;4997678;28;20439;-85
2022/05/17 03:42:13;;;;;;;6.20;5.70;;;13.90;99.90;;;;;;4997691;28;20486;-85
2022/05/17 03:44:43;;;;;;;6.27;5.73;;;13.80;99.90;;;;;;4998655;28;20481;-84
2022/05/17 03:47:16;;;;;;;6.87;6.30;;;13.80;99.90;;;;;;4998372;28;21082;-85
2022/05/17 03:49:52;;;;;;;5.80;5.10;;;13.80;99.90;;;;;;4998475;28;20825;-85
2022/05/17 03:52:38;;;;;;;4.97;4.63;;;13.80;99.90;;;;;;5000334;28;20458;-85
2022/05/17 03:55:10;;;;;;;7.00;6.30;;;13.80;99.90;;;;;;5001145;28;20537;-86
2022/05/17 03:57:47;;;;;;;6.07;5.10;;;13.80;99.90;;;;;;5002065;28;20550;-86
2022/05/17 04:00:18;;;;;;;5.83;5.33;;;13.80;99.90;;;;;;5000978;28;20465;-85
2022/05/17 04:02:53;;;;;;;6.83;6.17;;;13.80;99.90;;;;;;5001356;28;20461;-86
2022/05/17 04:05:37;;;;;;;5.70;5.20;;;13.80;99.90;;;;;;5001365;28;20544;-86
2022/05/17 04:08:19;;;;;;;5.70;5.20;;;13.80;99.90;;;;;;5001773;28;20465;-86
2022/05/17 04:10:52;;;;;;;5.93;5.43;;;13.80;99.90;;;;;;5001519;28;20459;-86
2022/05/17 04:13:31;;;;;;;6.37;5.87;;;13.80;99.90;;;;;;5001839;28;20459;-85
2022/05/17 04:16:05;;;;;;;5.83;5.43;;;13.80;99.90;;;;;;5007527;28;20480;-85
2022/05/17 04:18:36;;;;;;;6.30;5.70;;;13.90;99.90;;;;;;5000058;28;20498;-85
2022/05/17 04:21:10;;;;;;;7.53;6.47;;;13.90;99.90;;;;;;4996919;28;20533;-85
2022/05/17 04:23:42;;;;;;;7.33;5.60;;;13.90;99.90;;;;;;4997401;28;20458;-85
2022/05/17 04:26:18;;;;;;;6.30;5.70;;;14.00;99.90;;;;;;4997775;28;20479;-85
2022/05/17 04:28:48;;;;;;;6.53;5.87;;;14.00;99.90;;;;;;4997002;28;20459;-85
2022/05/17 04:31:22;;;;;;;5.43;5.00;;;14.00;99.90;;;;;;4997482;28;20466;-85
2022/05/17 04:33:52;;;;;;;6.70;6.10;;;14.10;99.90;;;;;;4997869;28;20463;-85
2022/05/17 04:36:33;;;;;;;9.93;6.63;;;14.10;99.90;;;;;;4996999;28;20490;-84
2022/05/17 04:39:30;;;;;;;;;;;;;;;;;;;;;
2022/05/17 04:42:13;;;;;;;7.47;5.60;;;14.10;99.90;;;;;;4999712;28;20443;-86
2022/05/17 04:44:52;;;;;;;7.33;6.63;;;14.20;99.90;;;;;;5002080;28;20506;-85
2022/05/17 04:47:22;;;;;;;7.10;5.93;;;14.20;99.90;;;;;;5002584;28;20465;-86
2022/05/17 04:49:54;;;;;;;7.37;6.10;;;14.30;99.90;;;;;;5000947;28;20482;-85
2022/05/17 04:52:41;;;;;;;6.40;5.70;;;14.30;99.90;;;;;;5002438;28;20494;-86
2022/05/17 04:55:20;;;;;;;6.40;5.80;;;14.40;99.90;;;;;;5001547;28;20468;-86
2022/05/17 04:57:49;;;;;;;5.97;5.57;;;14.40;99.90;;;;;;5002381;28;20541;-85
2022/05/17 05:00:34;;;;;;;6.67;6.07;;;14.50;99.90;;;;;;5001548;28;20464;-85
2022/05/17 05:03:09;;;;;;;5.20;4.73;;;14.60;99.90;;;;;;5002754;28;20833;-86
2022/05/17 05:05:57;;;;;;;8.43;6.57;;;14.60;99.90;;;;;;5011861;28;20463;-85
2022/05/17 05:08:48;;;;;;;7.93;6.80;;;14.70;99.90;;;;;;4995800;28;20461;-85
2022/05/17 05:11:23;;;;;;;6.63;5.90;;;14.80;99.90;;;;;;4995910;28;20460;-85
2022/05/17 05:14:12;;;;;;;8.90;6.77;;;14.80;99.90;;;;;;4996393;28;20539;-85
2022/05/17 05:16:42;;;;;;;6.50;5.90;;;14.90;99.90;;;;;;4997831;28;20834;-84
2022/05/17 05:19:21;;;;;;;5.73;5.23;;;15.00;99.90;;;;;;4996568;28;20505;-85
2022/05/17 05:21:52;;;;;;;6.53;5.93;;;15.10;99.90;;;;;;4998580;28;20564;-85
2022/05/17 05:24:33;;;;;;;8.67;6.60;;;15.20;99.90;;;;;;4997775;28;20456;-85
2022/05/17 05:27:24;;;;;;;8.00;5.90;;;15.30;99.90;;;;;;5001390;28;21072;-85
2022/05/17 05:29:54;;;;;;;6.90;6.20;;;15.40;99.90;;;;;;5000061;28;20935;-86
2022/05/17 05:32:27;;;;;;;6.70;6.07;;;15.50;99.90;;;;;;5001124;28;20550;-85
2022/05/17 05:35:09;;;;;;;6.93;6.00;;;15.60;99.90;;;;;;5002312;28;20842;-86
2022/05/17 05:38:01;;;;;;;7.20;6.60;;;15.70;99.90;;;;;;5002277;28;20537;-85
2022/05/17 05:40:41;;;;;;;6.30;5.70;;;15.80;99.90;;;;;;4999613;28;20460;-85
2022/05/17 05:43:14;;;;;;;8.03;6.70;;;15.80;99.90;;;;;;5000038;28;20467;-85
2022/05/17 05:45:40;;;;;;;7.20;5.90;;;15.90;99.90;;;;;;5004971;28;20464;-86
2022/05/17 05:48:14;;;;;;;5.83;5.07;;;16.10;99.90;;;;;;5001200;28;20466;-85
2022/05/17 05:50:47;;;;;;;5.97;5.43;;;16.20;99.90;;;;;;5000657;28;20460;-85
2022/05/17 05:53:15;;;;;;;7.23;6.53;;;16.30;99.90;;;;;;5000509;28;20469;-85
2022/05/17 05:55:50;;;;;;;8.63;7.73;;;16.40;99.90;;;;;;5008881;28;20558;-85
2022/05/17 05:58:17;;;;;;;7.80;7.10;;;16.60;99.90;;;;;;5000863;28;20480;-86
2022/05/17 06:00:44;;;;;;;7.10;6.33;;;16.70;99.90;;;;;;5000312;28;20453;-85
2022/05/17 06:03:11;;;;;;;6.57;5.97;;;16.80;99.90;;;;;;5003343;28;20904;-85
2022/05/17 06:05:39;;;;;;;7.13;6.53;;;16.90;99.90;;;;;;5004172;28;20490;-85
2022/05/17 06:08:06;;;;;;;9.13;6.50;;;17.00;99.90;;;;;;5004189;28;20458;-85
2022/05/17 06:10:33;;;;;;;7.00;5.97;;;17.00;99.90;;;;;;5003303;28;20483;-87
2022/05/17 06:13:02;;;;;;;7.73;6.93;;;17.10;99.90;;;;;;5003418;28;20449;-86
2022/05/17 06:15:31;;;;;;;6.43;5.93;;;17.20;99.90;;;;;;5002882;28;20612;-86
2022/05/17 06:18:01;;;;;;;6.00;5.40;;;17.30;99.90;;;;;;5002105;28;20544;-86
2022/05/17 06:20:28;;;;;;;11.43;7.23;;;17.40;99.90;;;;;;5002354;28;20450;-86
2022/05/17 06:22:55;;;;;;;9.07;6.53;;;17.40;99.90;;;;;;5003495;28;20465;-86
2022/05/17 06:25:32;;;;;;;8.00;6.53;;;17.50;99.90;;;;;;5002693;28;20466;-86
2022/05/17 06:28:01;;;;;;;10.17;7.40;;;17.50;99.90;;;;;;5003491;28;20465;-85
2022/05/17 06:30:28;;;;;;;9.03;6.53;;;17.60;99.90;;;;;;5001810;28;21006;-86
2022/05/17 06:32:55;;;;;;;7.23;6.57;;;17.60;99.90;;;;;;5001911;28;20458;-85
2022/05/17 06:35:22;;;;;;;8.30;7.40;;;17.70;99.90;;;;;;5003575;28;20478;-86
2022/05/17 06:37:51;;;;;;;9.90;6.23;;;17.80;99.90;;;;;;5003184;28;20493;-85
2022/05/17 06:40:18;;;;;;;11.00;7.23;;;17.80;99.90;;;;;;5003562;28;20519;-85
2022/05/17 06:42:45;;;;;;;9.10;6.57;;;17.90;99.90;;;;;;5005389;28;20465;-85
2022/05/17 06:45:14;;;;;;;11.13;9.50;;;18.00;99.90;;;;;;5011003;28;21051;-85
2022/05/17 06:47:41;;;;;;;7.80;7.07;;;18.00;99.90;;;;;;5007163;28;20458;-85
2022/05/17 06:50:25;;;;;;;7.50;6.70;;;18.10;99.90;;;;;;5002508;28;20459;-86
2022/05/17 06:52:53;;;;;;;9.73;6.40;;;18.20;99.90;;;;;;5001430;28;20471;-86
2022/05/17 06:55:22;;;;;;;9.30;6.80;;;18.20;99.90;;;;;;5000964;28;20470;-85
2022/05/17 06:57:51;;;;;;;9.23;8.33;;;18.20;99.90;;;;;;5002208;28;20463;-86
2022/05/17 07:00:21;;;;;;;8.90;8.00;;;18.30;99.90;;;;;;5000306;28;20486;-86
2022/05/17 07:02:52;;;;;;;9.53;8.00;;;18.40;99.90;;;;;;5001357;28;20474;-88
2022/05/17 07:05:19;;;;;;;8.20;7.40;;;18.40;99.90;;;;;;5001031;28;20528;-86
2022/05/17 07:07:46;;;;;;;11.93;7.10;;;18.60;99.90;;;;;;5000651;28;20507;-86
2022/05/17 07:13:12;;;;;;;7.03;6.43;;;18.60;99.90;;;;;;5002982;28;20454;-86
2022/05/17 07:15:42;;;;;;;7.77;6.97;;;18.70;99.90;;;;;;5004722;28;20840;-86
2022/05/17 07:18:10;;;;;;;7.07;6.50;;;18.80;99.90;;;;;;5003897;28;20824;-85
2022/05/17 07:20:39;;;;;;;7.30;6.50;;;18.90;99.90;;;;;;5003411;28;20821;-86
2022/05/17 07:23:06;;;;;;;8.80;7.90;;;19.00;99.90;;;;;;5004695;28;20999;-86
2022/05/17 07:25:35;;;;;;;8.30;7.00;;;19.10;99.90;;;;;;5007334;28;20481;-85
2022/05/17 07:28:05;;;;;;;7.97;7.27;;;19.20;99.90;;;;;;5006034;28;20493;-85
2022/05/17 07:30:32;;;;;;;8.57;7.70;;;19.20;99.90;;;;;;5006179;28;20446;-86
2022/05/17 07:33:01;;;;;;;9.40;8.23;;;19.20;99.90;;;;;;5018155;28;20457;-86
2022/05/17 07:35:30;;;;;;;8.63;7.80;;;19.30;99.90;;;;;;5010043;28;20506;-87
2022/05/17 07:38:01;;;;;;;8.80;8.10;;;19.40;99.90;;;;;;5004283;28;20445;-87
2022/05/17 07:40:53;;;;;;;8.30;7.27;;;19.40;99.90;;;;;;5005335;28;20486;-86
2022/05/17 07:43:24;;;;;;;9.63;7.73;;;19.50;99.90;;;;;;5005339;28;20469;-86
2022/05/17 07:45:52;;;;;;;10.00;9.30;;;19.70;99.90;;;;;;5006881;28;20861;-87
2022/05/17 07:48:23;;;;;;;8.57;7.87;;;19.70;99.90;;;;;;5009543;28;20437;-86
2022/05/17 07:50:52;;;;;;;9.43;7.67;;;19.80;99.90;;;;;;5006698;28;20451;-86
2022/05/17 07:53:26;;;;;;;8.63;7.93;;;19.90;99.90;;;;;;5005092;28;20475;-86
2022/05/17 07:55:53;;;;;;;7.77;6.97;;;19.90;99.90;;;;;;5004885;28;21076;-87
2022/05/17 07:58:20;;;;;;;9.03;8.13;;;20.10;99.90;;;;;;5004154;28;20760;-87
2022/05/17 08:00:47;;;;;;;7.50;6.73;;;20.10;99.90;;;;;;5004187;28;20439;-86
2022/05/17 08:03:16;;;;;;;8.70;7.90;;;20.30;99.90;;;;;;5003122;28;20472;-86
2022/05/17 08:05:45;;;;;;;8.20;7.50;;;20.40;99.90;;;;;;5002619;28;20486;-87
2022/05/17 08:08:12;;;;;;;7.07;6.30;;;20.40;99.90;;;;;;5002505;28;20867;-86
2022/05/17 08:10:41;;;;;;;9.00;8.20;;;20.60;99.90;;;;;;5002328;28;20541;-87
2022/05/17 08:13:08;;;;;;;7.30;5.60;;;20.70;99.90;;;;;;5003306;28;20472;-87
2022/05/17 08:15:35;;;;;;;5.67;5.17;;;20.80;99.90;;;;;;5000781;28;20482;-87
2022/05/17 08:18:04;;;;;;;6.13;5.63;;;20.90;99.90;;;;;;5000604;28;20448;-86
2022/05/17 08:20:31;;;;;;;6.63;5.93;;;21.00;99.90;;;;;;5002796;28;20551;-87
2022/05/17 08:23:00;;;;;;;6.40;5.80;;;21.10;99.90;;;;;;5011355;28;20513;-86
2022/05/17 08:28:11;;;;;;;7.30;6.60;;;21.20;99.90;;;;;;5006149;28;20453;-87
2022/05/17 08:30:40;;;;;;;6.67;5.83;;;21.30;99.90;;;;;;5005766;28;20481;-86
2022/05/17 08:33:16;;;;;;;6.40;5.37;;;21.50;99.90;;;;;;5005706;28;20464;-86
2022/05/17 08:35:46;;;;;;;7.00;6.00;;;21.60;99.90;;;;;;5003230;28;20481;-86
2022/05/17 08:38:20;;;;;;;6.70;5.27;;;21.60;99.90;;;;;;5002226;28;20552;-87
2022/05/17 08:40:57;;;;;;;7.40;6.77;;;21.80;99.90;;;;;;5002367;28;20485;-87
2022/05/17 08:43:29;;;;;;;7.30;6.60;;;22.00;99.90;;;;;;5003142;28;20477;-87
2022/05/17 08:46:18;;;;;;;6.50;5.90;;;22.20;99.90;;;;;;5005418;28;20995;-86
2022/05/17 08:48:50;;;;;;;6.03;5.50;;;22.30;98.90;;;;;;5006435;28;20455;-84
2022/05/17 08:51:23;;;;;;;5.87;5.33;;;22.40;98.10;;;;;;5007664;28;20455;-85
2022/05/17 08:53:51;;;;;;;6.00;5.50;;;22.20;98.40;;;;;;5006842;28;20525;-83
2022/05/17 08:56:20;;;;;;;6.93;6.40;;;22.40;98.90;;;;;;5003586;28;20813;-85
2022/05/17 08:58:51;;;;;;;5.83;5.33;;;22.60;98.60;;;;;;5002717;28;20533;-85
2022/05/17 09:01:24;;;;;;;6.30;5.67;;;22.80;99.90;;;;;;5002267;28;20456;-85
2022/05/17 09:04:06;;;;;;;7.30;5.13;;;22.90;98.90;;;;;;5002962;28;20457;-84
2022/05/17 09:06:42;;;;;;;7.50;5.57;;;22.90;97.80;;;;;;5007681;28;20502;-86
2022/05/17 09:09:16;;;;;;;7.47;6.57;;;22.90;96.80;;;;;;5001118;28;20531;-86
2022/05/17 09:11:49;;;;;;;7.00;5.10;;;23.20;96.10;;;;;;5010263;28;20438;-86
2022/05/17 09:14:19;;;;;;;5.53;5.00;;;23.40;95.70;;;;;;4999041;28;20530;-86
2022/05/17 09:16:49;;;;;;;5.10;4.63;;;23.60;96.30;;;;;;4998666;28;20474;-87
2022/05/17 09:19:16;;;;;;;5.50;5.03;;;23.70;95.20;;;;;;4998391;28;20546;-86
2022/05/17 09:21:48;;;;;;;5.97;5.50;;;23.70;94.20;;;;;;4998601;28;20502;-86
2022/05/17 09:24:20;;;;;;;4.83;4.27;;;23.70;94.30;;;;;;4998368;28;20554;-86
2022/05/17 09:26:51;;;;;;;7.43;5.97;;;23.80;95.00;;;;;;4998846;28;20459;-86
2022/05/17 09:29:22;;;;;;;8.27;5.37;;;24.10;93.60;;;;;;4998438;28;20459;-87
2022/05/17 09:31:54;;;;;;;6.63;5.30;;;24.20;93.00;;;;;;4998719;28;20991;-86
2022/05/17 09:34:29;;;;;;;5.67;5.17;;;24.20;93.50;;;;;;4998220;28;20485;-86
2022/05/17 09:36:57;;;;;;;6.13;5.53;;;24.40;93.40;;;;;;4998259;28;20797;-86
2022/05/17 09:39:27;;;;;;;5.13;4.80;;;24.60;94.10;;;;;;4997260;28;20483;-87
2022/05/17 09:41:58;;;;;;;5.67;4.77;;;24.80;93.00;;;;;;4997550;28;20456;-86
2022/05/17 09:44:27;;;;;;;6.13;5.53;;;24.70;92.60;;;;;;4997974;28;20978;-88
2022/05/17 09:47:00;;;;;;;5.67;5.17;;;24.10;91.90;;;;;;4998451;28;20475;-86
2022/05/17 09:52:34;;;;;;;8.57;6.70;;;23.70;93.70;;;;;;4997953;28;20455;-86
2022/05/17 09:55:21;;;;;;;5.73;4.77;;;24.10;94.30;;;;;;4997964;28;20467;-87
2022/05/17 09:57:54;;;;;;;5.10;4.70;;;24.40;93.10;;;;;;4997066;28;20507;-89
2022/05/17 10:00:25;;;;;;;4.90;4.27;;;24.80;92.00;;;;;;5005900;28;20473;-91
2022/05/17 10:02:55;;;;;;;6.00;4.33;;;25.10;92.00;;;;;;5000700;28;20557;-87
2022/05/17 10:05:27;;;;;;;7.97;5.30;;;25.30;90.90;;;;;;4997559;28;20484;-86
2022/05/17 10:08:01;;;;;;;4.67;4.30;;;25.60;92.30;;;;;;4996888;28;20425;-87
2022/05/17 10:10:40;;;;;;;5.20;4.77;;;25.60;89.10;;;;;;4997420;28;20548;-86
2022/05/17 10:13:18;;;;;;;4.60;4.30;;;25.60;87.10;;;;;;4996862;28;20482;-86
2022/05/17 10:15:48;;;;;;;9.00;5.20;;;25.30;88.90;;;;;;5001151;28;20509;-86
2022/05/17 10:18:30;;;;;;;5.13;4.73;;;25.40;89.10;;;;;;4999792;28;20537;-86
2022/05/17 10:21:05;;;;;;;6.03;5.53;;;25.30;88.40;;;;;;4998176;28;21017;-86
2022/05/17 10:23:40;;;;;;;6.63;6.03;;;25.10;89.10;;;;;;4998513;28;20479;-87
2022/05/17 10:26:14;;;;;;;4.97;4.67;;;25.10;90.00;;;;;;4997937;28;20564;-86
2022/05/17 10:28:46;;;;;;;7.63;5.97;;;25.30;89.80;;;;;;4996759;28;20428;-86
2022/05/17 10:31:22;;;;;;;4.73;4.43;;;25.20;86.70;;;;;;4996949;28;20437;-86
2022/05/17 10:34:11;;;;;;;5.33;4.73;;;24.90;87.90;;;;;;4996714;28;20448;-87
2022/05/17 10:36:42;;;;;;;4.20;3.90;;;24.80;86.50;;;;;;4996897;28;20452;-86
2022/05/17 10:39:21;;;;;;;5.37;4.87;;;24.50;87.80;;;;;;4997105;28;20466;-86
2022/05/17 10:41:52;;;;;;;6.47;5.10;;;24.20;88.30;;;;;;4997004;28;20542;-86
2022/05/17 10:44:21;;;;;;;5.10;4.60;;;24.20;89.30;;;;;;4996773;28;20482;-87
2022/05/17 10:46:54;;;;;;;4.70;4.30;;;24.60;90.10;;;;;;4996497;28;20542;-86
2022/05/17 10:49:36;;;;;;;4.97;4.47;;;24.80;89.90;;;;;;5003198;28;20435;-90
2022/05/17 10:52:13;;;;;;;5.93;4.90;;;24.90;88.90;;;;;;4999652;28;20463;-87
2022/05/17 10:54:52;;;;;;;4.20;3.87;;;25.10;87.80;;;;;;4996496;28;20530;-86
2022/05/17 10:57:31;;;;;;;4.20;3.90;;;25.30;86.90;;;;;;4996226;28;20544;-87
2022/05/17 11:00:16;;;;;;;4.83;4.33;;;25.40;84.10;;;;;;4996185;28;20502;-87
2022/05/17 11:03:01;;;;;;;4.57;4.27;;;25.50;84.60;;;;;;4996906;28;20504;-86
2022/05/17 11:05:42;;;;;;;4.90;4.43;;;25.70;86.10;;;;;;4996936;28;20486;-86
2022/05/17 11:08:21;;;;;;;4.20;3.87;;;25.90;83.80;;;;;;4996849;28;20467;-88
2022/05/17 11:10:59;;;;;;;4.17;3.97;;;26.20;84.90;;;;;;4996391;28;20515;-86
2022/05/17 11:13:32;;;;;;;4.57;3.80;;;26.60;80.80;;;;;;4996570;28;20446;-87
2022/05/17 11:16:06;;;;;;;3.80;3.50;;;27.00;82.70;;;;;;4996202;28;20491;-86
2022/05/17 11:18:43;;;;;;;4.53;4.13;;;27.70;83.70;;;;;;4996807;28;20589;-87
2022/05/17 11:21:19;;;;;;;6.83;4.60;;;28.40;76.00;;;;;;4996117;28;20484;-87
2022/05/17 11:23:53;;;;;;;4.30;3.90;;;29.10;77.30;;;;;;4996417;28;20461;-86
2022/05/17 11:26:38;;;;;;;6.30;4.53;;;29.70;70.10;;;;;;4996761;28;20447;-87
2022/05/17 11:29:42;;;;;;;4.73;4.43;;;30.10;69.20;;;;;;4996848;28;20437;-86
2022/05/17 11:32:23;;;;;;;4.73;4.10;;;30.30;67.10;;;;;;4981753;28;20879;-87
2022/05/17 11:34:53;;;;;;;4.23;3.87;;;30.50;66.60;;;;;;4996188;28;20552;-86
2022/05/17 11:37:46;;;;;;;4.83;4.20;;;30.70;68.00;;;;;;4998771;28;20469;-88
2022/05/17 11:40:54;;;;;;;5.00;4.60;;;31.00;69.10;;;;;;5007855;28;20517;-86
2022/05/17 11:43:43;;;;;;;5.10;4.70;;;31.40;62.60;;;;;;4997332;28;20463;-87
2022/05/17 11:46:43;;;;;;;4.30;3.90;;;31.80;62.30;;;;;;4996289;28;20565;-87
2022/05/17 11:49:48;;;;;;;5.27;4.77;;;32.40;61.70;;;;;;4996302;28;20504;-87
2022/05/17 11:52:28;;;;;;;4.07;3.77;;;33.00;56.50;;;;;;4986556;28;20546;-87
2022/05/17 11:54:56;;;;;;;6.50;3.40;;;33.20;56.60;;;;;;4995854;28;20529;-87
2022/05/17 11:58:00;;;;;;;3.37;3.10;;;33.50;53.80;;;;;;4995954;28;20442;-87
2022/05/17 12:00:49;;;;;;;3.67;3.37;;;33.10;51.90;;;;;;4999452;28;20485;-88
2022/05/17 12:03:50;;;;;;;3.27;3.00;;;33.40;53.00;;;;;;4999534;28;20474;-87
2022/05/17 12:06:42;;;;;;;5.03;2.60;;;33.80;49.20;;;;;;4999927;28;20449;-87
2022/05/17 12:09:27;;;;;;;2.90;2.70;;;34.10;50.80;;;;;;5000476;28;20447;-88
2022/05/17 12:12:24;;;;;;;3.33;2.93;;;34.00;51.00;;;;;;4999350;28;20439;-88
2022/05/17 12:15:08;;;;;;;4.37;4.07;;;34.10;48.80;;;;;;4999206;28;20463;-88
2022/05/17 12:17:44;;;;;;;3.77;3.57;;;34.00;49.50;;;;;;4998851;28;20419;-87
2022/05/17 12:20:16;;;;;;;4.30;3.47;;;33.80;48.20;;;;;;4999400;28;20888;-88
2022/05/17 12:22:54;;;;;;;3.23;3.00;;;32.50;48.10;;;;;;4999336;28;20537;-87
2022/05/17 12:25:29;;;;;;;3.37;3.07;;;32.00;50.10;;;;;;4999146;28;21007;-88
2022/05/17 12:27:56;;;;;;;3.53;3.10;;;31.90;54.00;;;;;;5007784;28;20435;-92
2022/05/17 12:33:17;;;;;;;3.60;3.40;;;32.50;49.90;;;;;;5000526;28;20435;-88
2022/05/17 12:35:45;;;;;;;4.53;4.10;;;32.90;49.00;;;;;;4998511;28;20471;-87
2022/05/17 12:43:45;;;;;;;3.30;3.10;;;34.40;50.50;;;;;;4998527;28;20921;-87
2022/05/17 12:46:15;;;;;;;3.93;2.63;;;35.40;47.70;;;;;;4998096;28;20489;-87
2022/05/17 12:48:46;;;;;;;4.10;3.13;;;35.30;44.40;;;;;;4998805;28;20486;-87
2022/05/17 12:51:13;;;;;;;2.23;2.13;;;35.70;45.80;;;;;;4998336;28;20452;-87
2022/05/17 12:53:43;;;;;;;2.47;2.27;;;35.80;45.20;;;;;;4998150;28;20919;-87
2022/05/17 12:56:12;;;;;;;3.07;2.87;;;36.30;41.90;;;;;;4997740;28;20481;-87
2022/05/17 12:58:50;;;;;;;3.30;2.30;;;35.40;39.60;;;;;;4998353;28;20510;-87
2022/05/17 13:01:23;;;;;;;3.07;2.87;;;34.50;42.00;;;;;;4997748;28;20482;-87
2022/05/17 13:03:55;;;;;;;2.87;2.37;;;34.20;42.80;;;;;;4997423;28;20471;-87
2022/05/17 13:06:21;;;;;;;2.57;2.37;;;34.00;43.20;;;;;;4997302;28;20428;-88
2022/05/17 13:08:48;;;;;;;1.90;1.80;;;34.50;42.80;;;;;;4997493;28;20530;-87
2022/05/17 13:11:23;;;;;;;2.80;2.60;;;35.10;41.60;;;;;;4996899;28;20491;-87
2022/05/17 13:13:51;;;;;;;4.00;2.90;;;34.70;40.70;;;;;;4997735;28;20439;-89
2022/05/17 13:16:21;;;;;;;2.40;2.20;;;35.10;42.80;;;;;;4997245;28;20451;-87
2022/05/17 13:18:51;;;;;;;2.70;2.50;;;34.80;40.80;;;;;;5009161;28;20450;-87
2022/05/17 13:21:24;;;;;;;2.20;1.87;;;35.20;40.80;;;;;;4997651;28;20486;-88
2022/05/17 13:23:58;;;;;;;2.70;2.27;;;35.00;38.90;;;;;;4998602;28;20494;-87
2022/05/17 13:26:28;;;;;;;3.07;1.90;;;34.50;39.80;;;;;;4997254;28;20548;-87
2022/05/17 13:28:56;;;;;;;2.00;1.90;;;35.00;43.50;;;;;;4997133;28;20469;-88
2022/05/17 13:31:26;;;;;;;2.53;2.33;;;35.70;41.20;;;;;;4997763;28;20953;-88
2022/05/17 13:33:56;;;;;;;2.13;1.93;;;36.50;40.20;;;;;;4998128;28;20466;-87
2022/05/17 13:36:34;;;;;;;2.43;2.13;;;37.20;38.20;;;;;;4997494;28;20442;-88
2022/05/17 13:39:00;;;;;;;2.50;2.30;;;37.90;38.30;;;;;;4997992;28;20439;-88
2022/05/17 13:41:33;;;;;;;2.40;2.20;;;38.30;37.00;;;;;;4998130;28;20594;-89
2022/05/17 13:44:01;;;;;;;3.17;2.20;;;38.60;35.20;;;;;;4997561;28;20455;-87
2022/05/17 13:46:35;;;;;;;2.17;2.07;;;38.50;35.40;;;;;;4997235;28;20463;-88
2022/05/17 13:49:08;;;;;;;2.93;2.07;;;38.40;35.50;;;;;;4997742;28;20419;-88
2022/05/17 13:51:54;;;;;;;3.37;2.10;;;38.70;35.10;;;;;;4999568;28;20463;-88
2022/05/17 13:54:29;;;;;;;2.53;2.33;;;39.30;35.40;;;;;;4998217;28;20483;-89
2022/05/17 13:57:01;;;;;;;1.80;1.70;;;39.60;34.50;;;;;;4997922;28;20443;-88
2022/05/17 13:59:30;;;;;;;1.67;1.57;;;40.00;34.20;;;;;;4998291;28;20522;-88
2022/05/17 14:01:59;;;;;;;2.20;2.00;;;40.10;33.00;;;;;;4997890;28;20475;-88
2022/05/17 14:04:37;;;;;;;1.80;1.70;;;39.40;33.00;;;;;;4999377;28;20483;-88
2022/05/17 14:07:22;;;;;;;2.73;2.53;;;40.00;34.90;;;;;;5010238;28;20458;-89
2022/05/17 14:13:08;;;;;;;3.53;2.10;;;40.60;31.60;;;;;;4998431;28;20907;-88
2022/05/17 14:15:36;;;;;;;2.43;2.10;;;40.40;31.70;;;;;;4998176;28;20497;-88
2022/05/17 14:18:04;;;;;;;1.50;1.40;;;39.90;31.80;;;;;;4998971;28;20455;-89
2022/05/17 14:20:31;;;;;;;1.33;1.23;;;39.90;31.70;;;;;;4997914;28;20991;-88
2022/05/17 14:23:01;;;;;;;2.23;2.13;;;39.60;31.40;;;;;;4997504;28;20545;-88
2022/05/17 14:25:28;;;;;;;2.00;1.90;;;39.10;30.50;;;;;;4998194;28;20910;-88
2022/05/17 14:27:57;;;;;;;1.63;1.53;;;37.80;31.30;;;;;;4997997;28;20521;-88
2022/05/17 14:30:24;;;;;;;2.40;1.70;;;37.20;33.30;;;;;;4996451;28;20459;-89
2022/05/17 14:32:51;;;;;;;1.53;1.43;;;37.40;34.50;;;;;;4997404;28;20462;-89
2022/05/17 14:35:20;;;;;;;2.57;2.07;;;37.90;33.50;;;;;;4996768;28;20477;-89